Time;durP1;ratioP1;P1;durP2;ratioP2;P2;SDS_P1;SDS_P2;PMS_P1;PMS_P2;Temp;Humidity;BMP_temperature;BMP_pressure;BME280_temperature;BME280_humidity;BME280_pressure;Samples;Min_cycle;Max_cycle;Signal;HPM_P1;HPM_P2
2022/05/01 00:02:10;;;;;;;2.40;1.75;;;;;;;;;;5052853;28;20386;-48
2022/05/01 00:04:36;;;;;;;3.33;2.10;;;;;;;;;;5053090;28;20053;-52
2022/05/01 00:07:03;;;;;;;2.67;1.80;;;;;;;;;;5053043;28;20044;-47
2022/05/01 00:09:30;;;;;;;3.17;2.40;;;;;;;;;;5053070;28;20142;-48
2022/05/01 00:11:56;;;;;;;2.03;1.83;;;;;;;;;;5051655;28;20442;-49
2022/05/01 00:14:22;;;;;;;2.28;1.85;;;;;;;;;;5053004;28;20032;-52
2022/05/01 00:16:49;;;;;;;2.05;1.55;;;;;;;;;;5052144;28;20025;-48
2022/05/01 00:19:15;;;;;;;2.70;1.48;;;;;;;;;;5052853;28;20047;-52
2022/05/01 00:21:41;;;;;;;3.47;1.90;;;;;;;;;;5052179;28;20079;-50
2022/05/01 00:24:07;;;;;;;3.33;2.10;;;;;;;;;;5060814;28;20025;-47
2022/05/01 00:26:33;;;;;;;4.13;1.90;;;;;;;;;;5052558;28;20493;-48
2022/05/01 00:29:01;;;;;;;2.63;1.80;;;;;;;;;;5052028;28;20336;-47
2022/05/01 00:31:27;;;;;;;2.88;1.75;;;;;;;;;;5052192;28;20021;-48
2022/05/01 00:36:39;;;;;;;6.00;1.63;;;;;;;;;;5051729;28;20094;-51
2022/05/01 00:39:06;;;;;;;2.42;1.70;;;;;;;;;;5052134;28;20036;-48
2022/05/01 00:41:33;;;;;;;2.95;2.17;;;;;;;;;;5052244;28;20025;-48
2022/05/01 00:44:06;;;;;;;2.85;1.90;;;;;;;;;;5031575;28;20014;-48
2022/05/01 00:46:33;;;;;;;2.80;1.63;;;;;;;;;;5042615;28;20360;-47
2022/05/01 00:49:01;;;;;;;1.85;1.65;;;;;;;;;;5051606;28;20043;-49
2022/05/01 00:51:28;;;;;;;2.42;1.83;;;;;;;;;;5052444;28;20021;-47
2022/05/01 00:53:54;;;;;;;3.20;1.83;;;;;;;;;;5062953;28;20028;-48
2022/05/01 00:56:20;;;;;;;2.40;1.80;;;;;;;;;;5072354;28;20028;-47
2022/05/01 00:58:47;;;;;;;2.63;1.80;;;;;;;;;;5059463;28;20087;-48
2022/05/01 01:01:13;;;;;;;3.58;2.50;;;;;;;;;;5052423;28;20432;-49
2022/05/01 01:03:39;;;;;;;4.43;2.20;;;;;;;;;;5051797;28;20040;-51
2022/05/01 01:06:06;;;;;;;3.40;2.17;;;;;;;;;;5051566;28;20413;-47
2022/05/01 01:08:32;;;;;;;4.03;1.90;;;;;;;;;;5052487;28;20029;-48
2022/05/01 01:10:58;;;;;;;3.75;2.03;;;;;;;;;;5051326;28;20028;-51
2022/05/01 01:13:28;;;;;;;5.03;2.28;;;;;;;;;;5051960;28;20377;-49
2022/05/01 01:15:54;;;;;;;2.13;1.92;;;;;;;;;;5051137;28;20036;-47
2022/05/01 01:18:24;;;;;;;3.70;1.95;;;;;;;;;;5050556;28;20029;-51
2022/05/01 01:20:53;;;;;;;4.93;3.10;;;;;;;;;;5049676;28;20058;-49
2022/05/01 01:23:20;;;;;;;2.97;1.83;;;;;;;;;;5057317;28;20028;-50
2022/05/01 01:25:47;;;;;;;3.40;2.38;;;;;;;;;;5051178;28;20025;-47
2022/05/01 01:28:13;;;;;;;3.90;2.22;;;;;;;;;;5051835;28;20077;-51
2022/05/01 01:33:28;;;;;;;3.03;2.05;;;;;;;;;;5051733;28;20035;-49
2022/05/01 01:35:55;;;;;;;2.33;1.80;;;;;;;;;;5050807;28;20478;-47
2022/05/01 01:38:21;;;;;;;3.78;1.98;;;;;;;;;;5051627;28;20029;-49
2022/05/01 01:40:48;;;;;;;3.85;1.83;;;;;;;;;;5051179;28;20091;-48
2022/05/01 01:43:18;;;;;;;2.35;2.15;;;;;;;;;;5051599;28;20033;-50
2022/05/01 01:45:44;;;;;;;2.33;2.03;;;;;;;;;;5051230;28;20051;-51
2022/05/01 01:48:13;;;;;;;3.17;2.13;;;;;;;;;;5051324;28;20035;-49
2022/05/01 01:50:40;;;;;;;2.28;2.00;;;;;;;;;;5051765;28;20036;-50
2022/05/01 01:53:07;;;;;;;3.55;2.28;;;;;;;;;;5053003;28;20060;-48
2022/05/01 01:55:33;;;;;;;2.70;2.03;;;;;;;;;;5071829;28;20035;-48
2022/05/01 01:58:00;;;;;;;2.85;2.25;;;;;;;;;;5068873;28;20060;-50
2022/05/01 02:00:27;;;;;;;2.28;1.92;;;;;;;;;;5050592;28;20029;-48
2022/05/01 02:02:57;;;;;;;3.67;2.20;;;;;;;;;;5050355;28;20059;-49
2022/05/01 02:05:23;;;;;;;3.65;2.67;;;;;;;;;;5051494;28;20068;-49
2022/05/01 02:07:49;;;;;;;3.90;2.30;;;;;;;;;;5050884;28;20029;-48
2022/05/01 02:10:15;;;;;;;3.72;2.38;;;;;;;;;;5051379;28;20557;-52
2022/05/01 02:12:41;;;;;;;3.83;2.22;;;;;;;;;;5051022;28;20048;-48
2022/05/01 02:15:07;;;;;;;3.13;2.22;;;;;;;;;;5050759;28;20103;-50
2022/05/01 02:17:33;;;;;;;3.50;2.35;;;;;;;;;;5054366;28;20021;-50
2022/05/01 02:19:59;;;;;;;2.72;1.83;;;;;;;;;;5054256;28;20032;-49
2022/05/01 02:22:25;;;;;;;3.22;2.00;;;;;;;;;;5055196;28;20481;-50
2022/05/01 02:24:51;;;;;;;2.97;2.40;;;;;;;;;;5069744;28;20029;-48
2022/05/01 02:27:17;;;;;;;4.10;2.70;;;;;;;;;;5055475;28;20072;-48
2022/05/01 02:29:44;;;;;;;4.25;2.15;;;;;;;;;;5055118;28;20401;-53
2022/05/01 02:32:10;;;;;;;4.03;2.25;;;;;;;;;;5054218;28;20025;-50
2022/05/01 02:34:36;;;;;;;3.92;2.58;;;;;;;;;;5055122;28;20032;-48
2022/05/01 02:37:02;;;;;;;5.45;2.50;;;;;;;;;;5053896;28;20025;-47
2022/05/01 02:39:28;;;;;;;2.88;2.00;;;;;;;;;;5055065;28;20029;-49
2022/05/01 02:41:56;;;;;;;3.60;2.90;;;;;;;;;;5053830;28;20029;-51
2022/05/01 02:44:22;;;;;;;3.83;2.35;;;;;;;;;;5054778;28;20044;-51
2022/05/01 02:46:48;;;;;;;2.75;2.17;;;;;;;;;;5054173;28;20029;-49
2022/05/01 02:49:14;;;;;;;6.05;2.38;;;;;;;;;;5054519;28;20021;-49
2022/05/01 02:51:40;;;;;;;2.33;2.10;;;;;;;;;;5054408;28;20025;-49
2022/05/01 02:54:06;;;;;;;2.85;2.20;;;;;;;;;;5053459;28;20036;-56
2022/05/01 02:56:33;;;;;;;3.17;2.25;;;;;;;;;;5054023;28;20047;-48
2022/05/01 02:59:00;;;;;;;3.20;2.70;;;;;;;;;;5053579;28;20183;-52
2022/05/01 03:01:26;;;;;;;4.82;2.13;;;;;;;;;;5054206;28;20036;-49
2022/05/01 03:03:52;;;;;;;1.73;1.60;;;;;;;;;;5053092;28;20032;-49
2022/05/01 03:06:18;;;;;;;6.85;2.83;;;;;;;;;;5052951;28;20025;-48
2022/05/01 03:08:44;;;;;;;2.45;2.05;;;;;;;;;;5054311;28;20378;-48
2022/05/01 03:11:10;;;;;;;2.83;2.15;;;;;;;;;;5053196;28;20115;-51
2022/05/01 03:13:36;;;;;;;3.00;2.60;;;;;;;;;;5054265;28;20025;-47
2022/05/01 03:16:03;;;;;;;4.03;2.45;;;;;;;;;;5053186;28;20378;-48
2022/05/01 03:23:58;;;;;;;3.88;2.78;;;;;;;;;;5058280;28;20552;-49
2022/05/01 03:26:25;;;;;;;3.00;2.00;;;;;;;;;;5073770;28;20104;-51
2022/05/01 03:28:51;;;;;;;4.80;2.53;;;;;;;;;;5073123;28;20127;-52
2022/05/01 03:31:18;;;;;;;2.60;2.15;;;;;;;;;;5072684;28;20031;-48
2022/05/01 03:33:44;;;;;;;3.30;2.53;;;;;;;;;;5053721;28;20063;-48
2022/05/01 03:36:11;;;;;;;3.53;2.70;;;;;;;;;;5052695;28;20218;-47
2022/05/01 03:38:38;;;;;;;3.53;2.28;;;;;;;;;;5053843;28;20068;-47
2022/05/01 03:41:07;;;;;;;4.30;2.15;;;;;;;;;;5052794;28;20025;-49
2022/05/01 03:43:34;;;;;;;3.25;2.50;;;;;;;;;;5053377;28;20033;-49
2022/05/01 03:46:06;;;;;;;3.60;2.20;;;;;;;;;;5052717;28;20100;-49
2022/05/01 03:48:32;;;;;;;3.22;2.92;;;;;;;;;;5053435;28;20075;-47
2022/05/01 03:50:59;;;;;;;3.38;2.50;;;;;;;;;;5052228;28;20039;-48
2022/05/01 03:53:25;;;;;;;3.55;2.33;;;;;;;;;;5053420;28;20533;-47
2022/05/01 03:55:52;;;;;;;3.92;3.25;;;;;;;;;;5067101;28;20108;-52
2022/05/01 03:58:18;;;;;;;3.88;2.75;;;;;;;;;;5053615;28;20044;-52
2022/05/01 04:00:47;;;;;;;3.83;2.53;;;;;;;;;;5053407;28;20060;-49
2022/05/01 04:03:13;;;;;;;3.78;2.45;;;;;;;;;;5052462;28;20071;-51
2022/05/01 04:05:40;;;;;;;2.75;2.03;;;;;;;;;;5052797;28;20025;-48
2022/05/01 04:08:08;;;;;;;5.15;2.88;;;;;;;;;;5052606;28;20032;-46
2022/05/01 04:10:34;;;;;;;5.82;3.15;;;;;;;;;;5053204;28;20025;-48
2022/05/01 04:13:00;;;;;;;3.13;2.33;;;;;;;;;;5052478;28;20033;-50
2022/05/01 04:15:26;;;;;;;4.43;2.50;;;;;;;;;;5052816;28;20044;-48
2022/05/01 04:17:52;;;;;;;3.10;2.67;;;;;;;;;;5052628;28;20040;-53
2022/05/01 04:20:19;;;;;;;4.43;3.28;;;;;;;;;;5052262;28;20033;-49
2022/05/01 04:22:49;;;;;;;2.47;2.25;;;;;;;;;;5052671;28;20032;-48
2022/05/01 04:25:16;;;;;;;3.63;2.50;;;;;;;;;;5065288;28;20032;-48
2022/05/01 04:27:43;;;;;;;2.63;2.25;;;;;;;;;;5052889;28;20120;-49
2022/05/01 04:30:11;;;;;;;5.05;2.63;;;;;;;;;;5052112;28;20029;-52
2022/05/01 04:32:53;;;;;;;3.10;2.28;;;;;;;;;;5052521;28;20351;-47
2022/05/01 04:35:22;;;;;;;3.20;2.67;;;;;;;;;;5052086;28;20098;-51
2022/05/01 04:37:48;;;;;;;4.53;2.50;;;;;;;;;;5052692;28;20029;-48
2022/05/01 04:40:14;;;;;;;3.00;2.08;;;;;;;;;;5050047;28;20017;-51
2022/05/01 04:42:41;;;;;;;4.28;3.00;;;;;;;;;;5051289;28;20572;-52
2022/05/01 04:45:08;;;;;;;3.33;2.78;;;;;;;;;;5050448;28;20052;-51
2022/05/01 04:47:34;;;;;;;5.00;3.08;;;;;;;;;;5051196;28;20039;-48
2022/05/01 04:50:00;;;;;;;3.33;2.20;;;;;;;;;;5050314;28;20406;-52
2022/05/01 04:52:26;;;;;;;2.70;2.05;;;;;;;;;;5050871;28;20080;-47
2022/05/01 04:54:52;;;;;;;3.65;2.65;;;;;;;;;;5053472;28;20107;-52
2022/05/01 04:57:18;;;;;;;3.15;2.10;;;;;;;;;;5050318;28;20112;-50
2022/05/01 04:59:44;;;;;;;4.00;3.13;;;;;;;;;;5049730;28;20040;-47
2022/05/01 05:02:10;;;;;;;3.25;2.67;;;;;;;;;;5049941;28;20017;-50
2022/05/01 05:04:36;;;;;;;3.53;2.30;;;;;;;;;;5050507;28;20374;-47
2022/05/01 05:07:02;;;;;;;4.45;2.70;;;;;;;;;;5049934;28;20090;-47
2022/05/01 05:12:13;;;;;;;2.97;2.15;;;;;;;;;;5049645;28;20027;-48
2022/05/01 05:14:39;;;;;;;3.42;2.60;;;;;;;;;;5050545;28;20095;-48
2022/05/01 05:17:09;;;;;;;3.53;2.35;;;;;;;;;;5049617;28;20465;-49
2022/05/01 05:19:36;;;;;;;3.15;2.42;;;;;;;;;;5048740;28;20478;-49
2022/05/01 05:22:02;;;;;;;5.57;2.53;;;;;;;;;;5050603;28;20047;-48
2022/05/01 05:24:29;;;;;;;5.13;2.75;;;;;;;;;;5055869;28;20021;-48
2022/05/01 05:26:55;;;;;;;4.20;2.45;;;;;;;;;;5056145;28;20112;-52
2022/05/01 05:29:21;;;;;;;7.45;2.83;;;;;;;;;;5051735;28;20075;-48
2022/05/01 05:31:48;;;;;;;3.30;2.30;;;;;;;;;;5050913;28;20027;-46
2022/05/01 05:34:14;;;;;;;6.55;2.80;;;;;;;;;;5050714;28;20028;-48
2022/05/01 05:36:40;;;;;;;4.47;2.72;;;;;;;;;;5050498;28;20024;-50
2022/05/01 05:39:07;;;;;;;4.05;2.72;;;;;;;;;;5050389;28;20036;-48
2022/05/01 05:41:33;;;;;;;4.05;3.00;;;;;;;;;;5050594;28;20043;-49
2022/05/01 05:43:59;;;;;;;6.53;2.50;;;;;;;;;;5049634;28;20032;-48
2022/05/01 05:46:25;;;;;;;5.88;2.40;;;;;;;;;;5049988;28;20033;-49
2022/05/01 05:48:51;;;;;;;9.48;3.70;;;;;;;;;;5050309;28;20025;-51
2022/05/01 05:51:17;;;;;;;3.55;2.95;;;;;;;;;;5050294;28;20269;-48
2022/05/01 05:53:43;;;;;;;10.63;2.80;;;;;;;;;;5054523;28;20017;-47
2022/05/01 05:56:09;;;;;;;6.00;2.58;;;;;;;;;;5054517;28;20043;-49
2022/05/01 05:58:35;;;;;;;11.82;4.75;;;;;;;;;;5054375;28;20068;-47
2022/05/01 06:01:01;;;;;;;5.28;2.95;;;;;;;;;;5052505;28;20390;-50
2022/05/01 06:03:27;;;;;;;14.80;3.00;;;;;;;;;;5054807;28;20021;-49
2022/05/01 06:05:53;;;;;;;4.80;2.63;;;;;;;;;;5052191;28;20032;-48
2022/05/01 06:08:19;;;;;;;5.15;2.72;;;;;;;;;;5054229;28;20033;-47
2022/05/01 06:10:45;;;;;;;7.63;3.17;;;;;;;;;;5055461;28;20027;-51
2022/05/01 06:13:11;;;;;;;9.80;3.55;;;;;;;;;;5053987;28;20398;-47
2022/05/01 06:15:38;;;;;;;8.98;2.97;;;;;;;;;;5055500;28;20021;-47
2022/05/01 06:18:04;;;;;;;7.15;2.97;;;;;;;;;;5054311;28;20033;-50
2022/05/01 06:20:30;;;;;;;6.35;2.80;;;;;;;;;;5054744;28;20032;-46
2022/05/01 06:22:56;;;;;;;6.07;2.67;;;;;;;;;;5054583;28;20056;-49
2022/05/01 06:25:22;;;;;;;8.38;3.05;;;;;;;;;;5056820;28;20048;-47
2022/05/01 06:27:48;;;;;;;8.07;2.92;;;;;;;;;;5054455;28;20095;-47
2022/05/01 06:30:14;;;;;;;5.57;2.58;;;;;;;;;;5054566;28;20025;-47
2022/05/01 06:32:40;;;;;;;5.13;2.80;;;;;;;;;;5054577;28;20055;-48
2022/05/01 06:35:07;;;;;;;7.47;2.70;;;;;;;;;;5053425;28;20063;-47
2022/05/01 06:37:37;;;;;;;9.40;2.85;;;;;;;;;;5054294;28;20075;-47
2022/05/01 06:40:04;;;;;;;10.95;3.20;;;;;;;;;;5051663;28;20470;-47
2022/05/01 06:42:30;;;;;;;6.72;3.30;;;;;;;;;;5052198;28;20035;-46
2022/05/01 06:44:56;;;;;;;7.80;2.75;;;;;;;;;;5052508;28;20017;-48
2022/05/01 06:47:22;;;;;;;5.03;2.85;;;;;;;;;;5052520;28;20025;-48
2022/05/01 06:49:48;;;;;;;9.95;2.67;;;;;;;;;;5052935;28;20100;-48
2022/05/01 06:52:19;;;;;;;4.30;2.38;;;;;;;;;;5052156;28;20025;-47
2022/05/01 06:54:45;;;;;;;7.38;2.78;;;;;;;;;;5051766;28;20017;-47
2022/05/01 06:57:11;;;;;;;6.60;2.78;;;;;;;;;;5053552;28;20025;-47
2022/05/01 06:59:37;;;;;;;7.05;2.60;;;;;;;;;;5056004;28;20035;-51
2022/05/01 07:02:03;;;;;;;7.32;2.55;;;;;;;;;;5050375;28;20029;-50
2022/05/01 07:04:29;;;;;;;7.90;2.65;;;;;;;;;;5054610;28;20045;-50
2022/05/01 07:06:55;;;;;;;4.97;2.30;;;;;;;;;;5054958;28;20036;-49
2022/05/01 07:09:21;;;;;;;4.63;2.65;;;;;;;;;;5051670;28;20033;-49
2022/05/01 07:11:47;;;;;;;9.95;3.58;;;;;;;;;;5051719;28;20075;-48
2022/05/01 07:14:13;;;;;;;4.63;2.38;;;;;;;;;;5050599;28;20033;-49
2022/05/01 07:16:39;;;;;;;4.45;2.67;;;;;;;;;;5051935;28;20020;-49
2022/05/01 07:19:06;;;;;;;6.97;2.65;;;;;;;;;;5051952;28;20032;-49
2022/05/01 07:21:32;;;;;;;13.52;2.65;;;;;;;;;;5053646;28;20063;-49
2022/05/01 07:23:58;;;;;;;5.65;2.70;;;;;;;;;;5052572;28;20045;-53
2022/05/01 07:26:26;;;;;;;4.60;2.40;;;;;;;;;;5054772;28;20091;-51
2022/05/01 07:28:52;;;;;;;7.85;3.15;;;;;;;;;;5053048;28;20056;-50
2022/05/01 07:31:18;;;;;;;5.78;2.50;;;;;;;;;;5052626;28;20021;-50
2022/05/01 07:33:44;;;;;;;7.68;2.70;;;;;;;;;;5053338;28;20033;-52
2022/05/01 07:36:11;;;;;;;3.90;2.53;;;;;;;;;;5052776;28;20524;-53
2022/05/01 07:38:37;;;;;;;4.85;2.65;;;;;;;;;;5053101;28;20032;-51
2022/05/01 07:41:03;;;;;;;4.78;2.50;;;;;;;;;;5052554;28;20028;-48
2022/05/01 07:43:29;;;;;;;6.68;2.45;;;;;;;;;;5053189;28;20025;-50
2022/05/01 07:45:55;;;;;;;5.63;2.38;;;;;;;;;;5052694;28;20078;-48
2022/05/01 07:48:22;;;;;;;3.30;2.22;;;;;;;;;;5052099;28;20021;-50
2022/05/01 07:50:48;;;;;;;5.55;2.70;;;;;;;;;;5053111;28;20040;-49
2022/05/01 07:53:16;;;;;;;4.38;2.20;;;;;;;;;;5052128;28;20032;-51
2022/05/01 07:55:42;;;;;;;3.33;2.20;;;;;;;;;;5053660;28;20032;-49
2022/05/01 07:58:08;;;;;;;4.53;1.92;;;;;;;;;;5052273;28;20060;-50
2022/05/01 08:00:34;;;;;;;6.57;2.85;;;;;;;;;;5053088;28;20029;-48
2022/05/01 08:05:44;;;;;;;3.42;2.03;;;;;;;;;;5038323;28;20059;-49
2022/05/01 08:08:10;;;;;;;7.13;2.60;;;;;;;;;;5051633;28;20035;-49
2022/05/01 08:10:36;;;;;;;3.88;1.92;;;;;;;;;;5052339;28;20029;-50
2022/05/01 08:13:03;;;;;;;4.10;2.38;;;;;;;;;;5051680;28;20351;-55
2022/05/01 08:15:29;;;;;;;3.90;2.17;;;;;;;;;;5051633;28;20032;-48
2022/05/01 08:21:05;;;;;;;4.53;1.95;;;;;;;;;;5052680;28;20115;-48
2022/05/01 08:23:25;;;;;;;4.43;2.30;;;;;;;;;;5049383;28;20079;-49
2022/05/01 08:25:51;;;;;;;4.15;2.83;;;;;;;;;;5050904;28;20021;-49
2022/05/01 08:28:17;;;;;;;7.70;3.05;;;;;;;;;;5051381;28;20058;-49
2022/05/01 08:30:43;;;;;;;4.95;3.03;;;;;;;;;;5051971;28;20025;-48
2022/05/01 08:33:09;;;;;;;7.00;3.45;;;;;;;;;;5051556;28;20025;-49
2022/05/01 08:35:35;;;;;;;4.40;2.92;;;;;;;;;;5052131;28;20021;-50
2022/05/01 08:38:01;;;;;;;8.10;4.35;;;;;;;;;;5051996;28;20029;-52
2022/05/01 08:40:27;;;;;;;4.57;3.03;;;;;;;;;;5051635;28;20078;-48
2022/05/01 08:42:54;;;;;;;11.60;4.95;;;;;;;;;;5052058;28;20070;-48
2022/05/01 08:45:24;;;;;;;7.22;3.80;;;;;;;;;;5050187;28;20021;-48
2022/05/01 08:47:54;;;;;;;6.13;4.13;;;;;;;;;;5052098;28;20029;-48
2022/05/01 08:50:21;;;;;;;6.07;3.35;;;;;;;;;;5051646;28;20074;-49
2022/05/01 08:52:47;;;;;;;7.03;3.83;;;;;;;;;;5052270;28;20036;-48
2022/05/01 08:55:14;;;;;;;5.05;3.78;;;;;;;;;;5051181;28;20470;-49
2022/05/01 08:57:40;;;;;;;4.22;3.20;;;;;;;;;;5051807;28;20474;-48
2022/05/01 09:00:07;;;;;;;4.85;3.33;;;;;;;;;;5051504;28;20045;-51
2022/05/01 09:02:34;;;;;;;5.95;3.30;;;;;;;;;;5051749;28;20489;-49
2022/05/01 09:05:00;;;;;;;5.30;3.47;;;;;;;;;;5052187;28;20079;-48
2022/05/01 09:07:27;;;;;;;6.43;3.80;;;;;;;;;;5051224;28;20040;-49
2022/05/01 09:09:53;;;;;;;5.35;3.53;;;;;;;;;;5051930;28;20573;-49
2022/05/01 09:15:05;;;;;;;6.32;3.72;;;;;;;;;;5052046;28;20439;-51
2022/05/01 09:17:31;;;;;;;4.63;3.20;;;;;;;;;;5051206;28;20069;-48
2022/05/01 09:20:10;;;;;;;6.40;3.67;;;;;;;;;;5051881;28;20082;-49
2022/05/01 09:22:50;;;;;;;6.68;3.90;;;;;;;;;;5051753;28;20075;-48
2022/05/01 09:25:17;;;;;;;4.60;3.58;;;;;;;;;;5050557;28;20409;-48
2022/05/01 09:27:43;;;;;;;6.07;4.07;;;;;;;;;;5051717;28;20442;-49
2022/05/01 09:30:09;;;;;;;5.05;3.58;;;;;;;;;;5051075;28;20064;-54
2022/05/01 09:32:37;;;;;;;3.42;2.97;;;;;;;;;;5051580;28;20021;-48
2022/05/01 09:35:03;;;;;;;5.38;3.53;;;;;;;;;;5051941;28;20033;-50
2022/05/01 09:37:29;;;;;;;5.78;3.92;;;;;;;;;;5050763;28;20033;-48
2022/05/01 09:39:55;;;;;;;5.32;3.47;;;;;;;;;;5051638;28;20036;-49
2022/05/01 09:42:25;;;;;;;4.50;3.25;;;;;;;;;;5049044;28;20378;-48
2022/05/01 09:45:03;;;;;;;4.10;3.13;;;;;;;;;;5052042;28;20092;-49
2022/05/01 09:47:35;;;;;;;4.05;2.67;;;;;;;;;;5050704;28;20115;-53
2022/05/01 09:50:04;;;;;;;4.47;3.20;;;;;;;;;;5051017;28;20064;-50
2022/05/01 09:52:50;;;;;;;4.25;2.92;;;;;;;;;;5050707;28;20104;-48
2022/05/01 09:55:16;;;;;;;4.07;3.38;;;;;;;;;;5050271;28;20025;-48
2022/05/01 09:57:42;;;;;;;3.88;2.83;;;;;;;;;;5069424;28;20036;-48
2022/05/01 10:00:08;;;;;;;4.32;3.63;;;;;;;;;;5071485;28;20376;-53
2022/05/01 10:02:34;;;;;;;4.78;3.50;;;;;;;;;;5061739;28;20037;-49
2022/05/01 10:05:06;;;;;;;4.25;3.38;;;;;;;;;;5051783;28;20070;-48
2022/05/01 10:07:35;;;;;;;3.63;3.17;;;;;;;;;;5050524;28;20040;-49
2022/05/01 10:10:02;;;;;;;8.05;3.22;;;;;;;;;;5051285;28;20434;-48
2022/05/01 10:12:28;;;;;;;13.27;3.70;;;;;;;;;;5050562;28;20021;-48
2022/05/01 10:14:55;;;;;;;6.20;3.42;;;;;;;;;;5051015;28;20455;-48
2022/05/01 10:17:21;;;;;;;3.75;2.60;;;;;;;;;;5050265;28;20029;-48
2022/05/01 10:19:48;;;;;;;5.68;2.75;;;;;;;;;;5050719;28;20040;-48
2022/05/01 10:22:14;;;;;;;5.70;3.30;;;;;;;;;;5050213;28;20053;-48
2022/05/01 10:24:40;;;;;;;11.07;3.58;;;;;;;;;;5051427;28;20036;-49
2022/05/01 10:27:10;;;;;;;7.55;3.67;;;;;;;;;;5054908;28;20049;-49
2022/05/01 10:29:36;;;;;;;5.57;3.45;;;;;;;;;;5050728;28;20025;-48
2022/05/01 10:32:24;;;;;;;5.38;3.58;;;;;;;;;;5050369;28;20086;-49
2022/05/01 10:35:09;;;;;;;5.10;3.55;;;;;;;;;;5049162;28;20048;-49
2022/05/01 10:37:39;;;;;;;3.45;2.65;;;;;;;;;;5052030;28;20044;-48
2022/05/01 10:40:06;;;;;;;4.03;3.00;;;;;;;;;;5054597;28;20037;-48
2022/05/01 10:42:32;;;;;;;6.28;3.00;;;;;;;;;;5053818;28;20025;-48
2022/05/01 10:44:58;;;;;;;4.47;2.70;;;;;;;;;;5054091;28;20047;-49
2022/05/01 10:47:35;;;;;;;5.90;3.13;;;;;;;;;;5053239;28;20112;-47
2022/05/01 10:50:05;;;;;;;6.32;3.67;;;;;;;;;;5054592;28;20017;-51
2022/05/01 10:52:33;;;;;;;5.40;3.08;;;;;;;;;;5053532;28;20611;-47
2022/05/01 10:55:01;;;;;;;6.60;3.25;;;;;;;;;;5054671;28;20358;-50
2022/05/01 10:57:27;;;;;;;5.82;3.08;;;;;;;;;;5066589;28;20036;-49
2022/05/01 11:00:22;;;;;;;6.00;3.40;;;;;;;;;;5074498;28;20367;-48
2022/05/01 11:02:49;;;;;;;5.63;3.17;;;;;;;;;;5053626;28;20033;-48
2022/05/01 11:05:33;;;;;;;6.07;4.20;;;;;;;;;;5053497;28;20029;-53
2022/05/01 11:08:01;;;;;;;7.93;4.22;;;;;;;;;;5051767;28;20457;-49
2022/05/01 11:10:28;;;;;;;5.82;4.72;;;;;;;;;;5056118;28;20031;-49
2022/05/01 11:12:54;;;;;;;6.30;4.00;;;;;;;;;;5056146;28;20037;-48
2022/05/01 11:15:27;;;;;;;40.63;11.52;;;;;;;;;;5053441;28;20105;-48
2022/05/01 11:17:54;;;;;;;27.35;9.00;;;;;;;;;;5053658;28;20032;-48
2022/05/01 11:20:21;;;;;;;38.60;12.68;;;;;;;;;;5053145;28;20051;-49
2022/05/01 11:22:47;;;;;;;21.60;8.52;;;;;;;;;;5054180;28;20075;-48
2022/05/01 11:25:19;;;;;;;22.85;7.45;;;;;;;;;;5053858;28;20025;-51
2022/05/01 11:27:52;;;;;;;23.55;7.10;;;;;;;;;;5067503;28;20053;-48
2022/05/01 11:30:31;;;;;;;15.57;7.15;;;;;;;;;;5067301;28;20057;-49
2022/05/01 11:33:10;;;;;;;20.40;8.60;;;;;;;;;;5053836;28;20029;-49
2022/05/01 11:35:54;;;;;;;22.02;9.95;;;;;;;;;;5052887;28;20388;-49
2022/05/01 11:38:24;;;;;;;21.48;9.10;;;;;;;;;;5052761;28;20111;-49
2022/05/01 11:40:57;;;;;;;22.13;8.50;;;;;;;;;;5054270;28;20021;-47
2022/05/01 11:43:23;;;;;;;20.20;8.13;;;;;;;;;;5052420;28;20382;-48
2022/05/01 11:45:50;;;;;;;16.30;6.90;;;;;;;;;;5053453;28;20047;-48
2022/05/01 11:48:17;;;;;;;19.70;7.72;;;;;;;;;;5052685;28;20029;-48
2022/05/01 11:50:44;;;;;;;25.13;7.95;;;;;;;;;;5053338;28;20028;-49
2022/05/01 11:53:17;;;;;;;16.42;7.15;;;;;;;;;;5053510;28;20052;-46
2022/05/01 12:04:21;;;;;;;13.02;6.10;;;;;;;;;;5040993;28;20063;-46
2022/05/01 12:06:47;;;;;;;13.98;6.00;;;;;;;;;;5052957;28;20040;-49
2022/05/01 12:09:17;;;;;;;16.33;5.47;;;;;;;;;;5053036;28;20025;-47
2022/05/01 12:11:46;;;;;;;17.05;5.32;;;;;;;;;;5053128;28;20021;-50
2022/05/01 12:14:13;;;;;;;10.90;5.28;;;;;;;;;;5052938;28;20021;-49
2022/05/01 12:16:40;;;;;;;14.98;5.40;;;;;;;;;;5052121;28;20440;-49
2022/05/01 12:19:07;;;;;;;12.70;5.38;;;;;;;;;;5052864;28;20040;-52
2022/05/01 12:21:35;;;;;;;16.10;5.53;;;;;;;;;;5052305;28;20029;-53
2022/05/01 12:24:04;;;;;;;15.75;5.05;;;;;;;;;;5052786;28;20032;-50
2022/05/01 12:26:32;;;;;;;11.10;4.95;;;;;;;;;;5053488;28;20032;-51
2022/05/01 12:28:58;;;;;;;10.13;5.30;;;;;;;;;;5072681;28;20056;-50
2022/05/01 12:31:24;;;;;;;16.52;5.68;;;;;;;;;;5053647;28;20025;-49
2022/05/01 12:33:53;;;;;;;11.40;4.60;;;;;;;;;;5051217;28;20024;-50
2022/05/01 12:36:25;;;;;;;11.35;5.20;;;;;;;;;;5051981;28;20424;-51
2022/05/01 12:39:01;;;;;;;9.65;4.78;;;;;;;;;;5052489;28;20083;-51
2022/05/01 12:44:12;;;;;;;8.65;4.43;;;;;;;;;;5032512;28;20037;-52
2022/05/01 12:46:39;;;;;;;10.63;5.07;;;;;;;;;;5038425;28;20557;-53
2022/05/01 12:49:05;;;;;;;9.25;4.35;;;;;;;;;;5052019;28;20075;-50
2022/05/01 12:51:41;;;;;;;7.50;4.15;;;;;;;;;;5051581;28;20039;-52
2022/05/01 12:54:10;;;;;;;10.63;5.05;;;;;;;;;;5052084;28;20025;-52
2022/05/01 12:56:37;;;;;;;6.57;4.57;;;;;;;;;;5050820;28;20091;-50
2022/05/01 12:59:22;;;;;;;7.57;3.55;;;;;;;;;;5051771;28;20037;-50
2022/05/01 13:01:48;;;;;;;6.72;3.63;;;;;;;;;;5050036;28;20040;-51
2022/05/01 13:04:21;;;;;;;7.72;3.38;;;;;;;;;;5050441;28;20021;-49
2022/05/01 13:06:48;;;;;;;12.23;3.75;;;;;;;;;;5050611;28;20028;-52
2022/05/01 13:09:16;;;;;;;6.03;3.03;;;;;;;;;;5050864;28;20124;-50
2022/05/01 13:11:58;;;;;;;5.78;3.45;;;;;;;;;;5049963;28;20739;-50
2022/05/01 13:14:33;;;;;;;6.05;3.08;;;;;;;;;;5049169;28;20033;-52
2022/05/01 13:17:12;;;;;;;4.97;3.08;;;;;;;;;;5050447;28;20104;-50
2022/05/01 13:19:39;;;;;;;5.88;3.22;;;;;;;;;;5048505;28;20662;-49
2022/05/01 13:22:07;;;;;;;5.13;3.10;;;;;;;;;;5050648;28;20017;-47
2022/05/01 13:24:33;;;;;;;5.65;3.20;;;;;;;;;;5049714;28;20420;-49
2022/05/01 13:27:00;;;;;;;7.38;3.05;;;;;;;;;;5052310;28;20032;-52
2022/05/01 13:29:27;;;;;;;6.90;3.22;;;;;;;;;;5049790;28;20028;-50
2022/05/01 13:31:53;;;;;;;8.05;3.58;;;;;;;;;;5050122;28;20028;-48
2022/05/01 13:34:19;;;;;;;9.90;4.22;;;;;;;;;;5050243;28;20112;-52
2022/05/01 13:36:46;;;;;;;6.97;3.15;;;;;;;;;;5049864;28;20048;-50
2022/05/01 13:39:12;;;;;;;4.53;2.80;;;;;;;;;;5050107;28;20076;-49
2022/05/01 13:47:08;;;;;;;3.85;3.22;;;;;;;;;;5047332;28;20130;-48
2022/05/01 13:49:34;;;;;;;7.40;3.63;;;;;;;;;;5029951;28;20120;-48
2022/05/01 13:52:01;;;;;;;12.07;3.35;;;;;;;;;;5031745;28;20099;-48
2022/05/01 13:54:27;;;;;;;4.30;2.63;;;;;;;;;;5035532;28;20105;-48
2022/05/01 13:56:53;;;;;;;5.60;2.67;;;;;;;;;;5050882;28;20052;-49
2022/05/01 13:59:20;;;;;;;3.42;2.30;;;;;;;;;;5071543;28;20079;-51
2022/05/01 14:01:47;;;;;;;3.97;2.58;;;;;;;;;;5067505;28;20112;-47
2022/05/01 14:04:13;;;;;;;7.25;2.75;;;;;;;;;;5051140;28;20025;-48
2022/05/01 14:06:39;;;;;;;5.28;2.63;;;;;;;;;;5050157;28;20057;-48
2022/05/01 14:09:05;;;;;;;4.82;2.83;;;;;;;;;;5051245;28;20060;-48
2022/05/01 14:11:31;;;;;;;5.60;2.63;;;;;;;;;;5050577;28;20027;-49
2022/05/01 14:13:58;;;;;;;3.20;2.40;;;;;;;;;;5055090;28;20036;-50
2022/05/01 14:16:24;;;;;;;3.50;2.60;;;;;;;;;;5054339;28;20025;-50
2022/05/01 14:18:51;;;;;;;3.47;2.50;;;;;;;;;;5055379;28;20120;-47
2022/05/01 14:21:17;;;;;;;3.58;2.50;;;;;;;;;;5055113;28;20492;-47
2022/05/01 14:23:47;;;;;;;4.03;2.47;;;;;;;;;;5054432;28;20021;-47
2022/05/01 14:26:14;;;;;;;4.10;2.83;;;;;;;;;;5054827;28;20109;-47
2022/05/01 14:28:40;;;;;;;4.20;2.75;;;;;;;;;;5064054;28;20565;-49
2022/05/01 14:31:07;;;;;;;2.75;2.45;;;;;;;;;;5054953;28;20506;-49
2022/05/01 14:34:06;;;;;;;3.35;2.58;;;;;;;;;;5053524;28;20017;-47
2022/05/01 14:36:35;;;;;;;3.88;2.70;;;;;;;;;;5041584;28;20363;-47
2022/05/01 14:39:08;;;;;;;4.07;2.55;;;;;;;;;;5054715;28;20025;-50
2022/05/01 14:41:36;;;;;;;4.65;2.63;;;;;;;;;;5053196;28;20096;-48
2022/05/01 14:44:03;;;;;;;3.17;2.53;;;;;;;;;;5054568;28;20427;-48
2022/05/01 14:46:34;;;;;;;3.08;2.38;;;;;;;;;;5053487;28;20497;-49
2022/05/01 14:49:03;;;;;;;3.35;2.45;;;;;;;;;;5054640;28;20036;-49
2022/05/01 14:51:32;;;;;;;2.95;2.50;;;;;;;;;;5053477;28;20426;-51
2022/05/01 14:54:01;;;;;;;4.78;2.67;;;;;;;;;;5054624;28;20017;-51
2022/05/01 14:56:27;;;;;;;4.13;2.83;;;;;;;;;;5053448;28;20017;-51
2022/05/01 15:07:10;;;;;;;6.75;3.13;;;;;;;;;;5054055;28;20036;-49
2022/05/01 15:09:37;;;;;;;2.58;2.38;;;;;;;;;;5053376;28;20021;-53
2022/05/01 15:12:03;;;;;;;3.45;2.70;;;;;;;;;;5054383;28;20104;-48
2022/05/01 15:14:29;;;;;;;2.90;2.28;;;;;;;;;;5053092;28;20032;-48
2022/05/01 15:17:16;;;;;;;3.40;2.05;;;;;;;;;;5054025;28;20024;-49
2022/05/01 15:19:48;;;;;;;5.05;2.20;;;;;;;;;;5053240;28;20718;-49
2022/05/01 15:22:29;;;;;;;3.10;2.40;;;;;;;;;;5053951;28;20025;-53
2022/05/01 15:24:57;;;;;;;2.83;2.28;;;;;;;;;;5053906;28;20482;-48
2022/05/01 15:27:44;;;;;;;4.13;2.42;;;;;;;;;;5053589;28;20049;-54
2022/05/01 15:30:10;;;;;;;2.92;2.47;;;;;;;;;;5069740;28;20041;-49
2022/05/01 15:33:17;;;;;;;3.30;2.83;;;;;;;;;;5058902;28;20029;-49